Time;durP1;ratioP1;P1;durP2;ratioP2;P2;SDS_P1;SDS_P2;PMS_P1;PMS_P2;Temp;Humidity;BMP_temperature;BMP_pressure;BME280_temperature;BME280_humidity;BME280_pressure;Samples;Min_cycle;Max_cycle;Signal;HPM_P1;HPM_P2
2019/10/31 04:26:05;;;;;;;6.31;3.57;;;;;;;18.99;54.10;101160.45;;;;-47
2019/10/31 04:29:05;;;;;;;5.15;3.67;;;;;;;19.02;53.94;101159.95;;;;-47
2019/10/31 04:32:05;;;;;;;4.60;3.63;;;;;;;19.04;53.88;101163.75;;;;-47
2019/10/31 04:35:05;;;;;;;3.91;3.58;;;;;;;19.07;53.84;101160.63;;;;-47
2019/10/31 04:39:05;;;;;;;3.85;3.47;;;;;;;19.09;53.66;101158.78;;;;-47
2019/10/31 04:42:05;;;;;;;4.25;3.55;;;;;;;19.11;53.65;101161.13;;;;-47
2019/10/31 04:45:05;;;;;;;4.75;3.59;;;;;;;19.13;53.53;101154.00;;;;-47
2019/10/31 04:48:05;;;;;;;3.98;3.58;;;;;;;19.14;53.54;101154.41;;;;-47
2019/10/31 04:51:05;;;;;;;4.25;3.65;;;;;;;19.15;53.52;101155.77;;;;-46
2019/10/31 04:54:05;;;;;;;3.86;3.55;;;;;;;19.16;53.47;101159.91;;;;-47
2019/10/31 04:57:05;;;;;;;4.02;3.62;;;;;;;19.17;53.39;101160.95;;;;-47
2019/10/31 05:00:05;;;;;;;3.70;3.39;;;;;;;19.17;53.37;101159.61;;;;-47
2019/10/31 05:03:05;;;;;;;3.89;3.47;;;;;;;19.19;53.30;101164.87;;;;-47
2019/10/31 05:06:05;;;;;;;3.78;3.48;;;;;;;19.18;53.31;101158.38;;;;-47
2019/10/31 05:09:05;;;;;;;3.90;3.55;;;;;;;19.17;53.28;101157.44;;;;-47
2019/10/31 05:12:05;;;;;;;3.62;3.28;;;;;;;19.17;53.11;101154.14;;;;-47
2019/10/31 05:15:05;;;;;;;4.03;3.63;;;;;;;19.19;53.11;101159.34;;;;-47
2019/10/31 05:18:05;;;;;;;3.69;3.33;;;;;;;19.20;53.15;101159.91;;;;-47
2019/10/31 05:21:05;;;;;;;3.61;3.30;;;;;;;19.22;53.23;101158.78;;;;-47
2019/10/31 05:24:05;;;;;;;3.58;3.28;;;;;;;19.24;53.32;101158.23;;;;-47
2019/10/31 05:27:05;;;;;;;3.49;3.19;;;;;;;19.27;53.40;101152.03;;;;-47
2019/10/31 05:30:05;;;;;;;3.75;3.45;;;;;;;19.29;53.65;101156.89;;;;-46
2019/10/31 05:33:05;;;;;;;3.27;2.97;;;;;;;19.32;53.61;101155.13;;;;-47
2019/10/31 05:36:05;;;;;;;3.51;3.21;;;;;;;19.37;53.60;101159.16;;;;-47
2019/10/31 05:39:05;;;;;;;3.27;2.97;;;;;;;19.40;53.61;101158.65;;;;-47
2019/10/31 05:42:05;;;;;;;3.47;3.17;;;;;;;19.44;53.52;101158.58;;;;-47
2019/10/31 05:45:05;;;;;;;3.43;3.13;;;;;;;19.49;53.51;101154.50;;;;-47
2019/10/31 05:48:05;;;;;;;3.38;3.08;;;;;;;19.52;53.57;101155.14;;;;-47
2019/10/31 05:51:05;;;;;;;3.23;2.93;;;;;;;19.56;53.52;101154.69;;;;-47
2019/10/31 05:54:05;;;;;;;3.27;2.96;;;;;;;19.61;53.55;101148.87;;;;-54
2019/10/31 05:57:05;;;;;;;3.99;3.06;;;;;;;19.65;53.80;101146.58;;;;-49
2019/10/31 06:00:05;;;;;;;4.13;3.01;;;;;;;19.72;53.53;101146.75;;;;-53
2019/10/31 06:03:05;;;;;;;5.59;3.18;;;;;;;19.75;53.56;101147.58;;;;-52
2019/10/31 06:06:05;;;;;;;3.59;2.95;;;;;;;19.77;53.49;101153.06;;;;-52
2019/10/31 06:09:05;;;;;;;3.89;2.89;;;;;;;19.81;53.35;101150.08;;;;-52
2019/10/31 06:12:05;;;;;;;3.85;3.11;;;;;;;19.83;53.35;101153.88;;;;-52
2019/10/31 06:15:05;;;;;;;3.93;2.83;;;;;;;19.86;53.28;101157.40;;;;-52
2019/10/31 06:18:05;;;;;;;3.15;2.87;;;;;;;19.89;53.31;101155.45;;;;-52
2019/10/31 06:21:05;;;;;;;3.22;2.96;;;;;;;19.92;53.33;101155.84;;;;-52
2019/10/31 06:24:05;;;;;;;4.94;2.80;;;;;;;19.94;53.25;101160.13;;;;-52
2019/10/31 06:27:05;;;;;;;3.09;2.77;;;;;;;19.96;53.25;101155.89;;;;-52
2019/10/31 06:30:05;;;;;;;3.06;2.84;;;;;;;19.98;53.17;101157.58;;;;-52
2019/10/31 06:33:05;;;;;;;2.91;2.58;;;;;;;20.00;53.16;101156.92;;;;-52
2019/10/31 06:36:05;;;;;;;3.26;2.85;;;;;;;20.03;53.23;101162.94;;;;-52
2019/10/31 06:39:05;;;;;;;3.29;2.99;;;;;;;20.04;53.03;101163.61;;;;-52
2019/10/31 06:42:05;;;;;;;3.67;2.93;;;;;;;20.07;53.09;101159.19;;;;-52
2019/10/31 06:45:05;;;;;;;3.30;3.00;;;;;;;20.09;53.11;101159.97;;;;-52
2019/10/31 06:48:05;;;;;;;3.40;3.10;;;;;;;20.10;53.00;101160.81;;;;-52
2019/10/31 06:51:05;;;;;;;3.21;2.91;;;;;;;20.11;53.09;101165.28;;;;-53
2019/10/31 06:54:05;;;;;;;3.40;3.10;;;;;;;20.13;53.06;101163.15;;;;-52
2019/10/31 06:57:05;;;;;;;3.36;3.06;;;;;;;20.15;52.99;101168.18;;;;-52
2019/10/31 07:00:05;;;;;;;3.48;3.03;;;;;;;20.16;53.01;101171.42;;;;-52
2019/10/31 07:03:05;;;;;;;3.26;2.96;;;;;;;20.17;53.03;101172.54;;;;-52
2019/10/31 07:06:05;;;;;;;3.35;2.85;;;;;;;20.18;53.02;101175.72;;;;-52
2019/10/31 07:09:05;;;;;;;3.21;2.91;;;;;;;20.20;52.92;101177.83;;;;-51
2019/10/31 07:12:05;;;;;;;3.01;2.80;;;;;;;20.21;52.84;101187.05;;;;-52
2019/10/31 07:15:05;;;;;;;3.13;2.83;;;;;;;20.21;52.85;101184.53;;;;-52
2019/10/31 07:18:05;;;;;;;6.16;3.30;;;;;;;20.24;53.02;101189.39;;;;-49
2019/10/31 07:21:05;;;;;;;4.36;2.73;;;;;;;20.26;53.12;101187.61;;;;-54
2019/10/31 07:24:05;;;;;;;4.21;3.00;;;;;;;20.27;53.14;101187.43;;;;-54
2019/10/31 07:27:05;;;;;;;3.86;3.07;;;;;;;20.29;53.13;101193.52;;;;-52
2019/10/31 07:30:05;;;;;;;3.35;3.01;;;;;;;20.32;53.17;101188.53;;;;-50
2019/10/31 07:33:05;;;;;;;4.00;3.16;;;;;;;20.33;52.92;101187.25;;;;-50
2019/10/31 07:36:05;;;;;;;3.18;2.88;;;;;;;20.34;52.79;101186.80;;;;-50
2019/10/31 07:39:05;;;;;;;3.33;3.03;;;;;;;20.35;52.74;101179.87;;;;-50
2019/10/31 07:42:05;;;;;;;3.59;3.18;;;;;;;20.35;52.80;101177.46;;;;-50
2019/10/31 07:45:05;;;;;;;3.27;2.97;;;;;;;20.36;52.78;101174.48;;;;-50
2019/10/31 07:48:05;;;;;;;4.73;3.08;;;;;;;20.38;52.57;101177.50;;;;-50
2019/10/31 07:51:05;;;;;;;3.49;3.01;;;;;;;20.39;52.66;101176.88;;;;-50
2019/10/31 07:54:05;;;;;;;4.06;3.01;;;;;;;20.39;52.56;101177.67;;;;-50
2019/10/31 07:57:05;;;;;;;3.39;3.09;;;;;;;20.40;52.60;101173.25;;;;-50
2019/10/31 08:00:05;;;;;;;3.77;3.01;;;;;;;20.42;52.63;101179.56;;;;-49
2019/10/31 08:03:05;;;;;;;6.05;3.37;;;;;;;20.44;52.48;101174.74;;;;-47
2019/10/31 08:06:05;;;;;;;3.80;3.10;;;;;;;20.46;52.57;101179.95;;;;-48
2019/10/31 08:09:05;;;;;;;3.63;3.25;;;;;;;20.48;52.88;101179.00;;;;-52
2019/10/31 08:12:05;;;;;;;3.30;2.90;;;;;;;20.50;53.00;101179.44;;;;-51
2019/10/31 08:15:05;;;;;;;5.91;3.26;;;;;;;20.52;53.13;101182.77;;;;-48
2019/10/31 08:18:05;;;;;;;6.71;3.36;;;;;;;20.53;53.14;101179.73;;;;-51
2019/10/31 08:21:05;;;;;;;4.81;3.29;;;;;;;20.56;53.23;101180.25;;;;-50
2019/10/31 08:24:05;;;;;;;4.76;3.17;;;;;;;20.57;53.15;101176.61;;;;-49
2019/10/31 08:27:05;;;;;;;4.31;2.99;;;;;;;20.58;53.23;101175.09;;;;-50
2019/10/31 08:30:05;;;;;;;5.07;3.17;;;;;;;20.61;53.18;101168.59;;;;-50
2019/10/31 08:33:05;;;;;;;4.64;3.51;;;;;;;20.63;53.09;101171.38;;;;-50
2019/10/31 08:36:05;;;;;;;6.60;3.27;;;;;;;20.63;53.20;101173.17;;;;-50
2019/10/31 08:39:05;;;;;;;3.67;3.15;;;;;;;20.65;53.16;101174.34;;;;-53
2019/10/31 08:42:05;;;;;;;3.77;3.22;;;;;;;20.67;53.22;101174.05;;;;-53
2019/10/31 08:45:05;;;;;;;4.31;3.39;;;;;;;20.69;53.04;101173.80;;;;-52
2019/10/31 08:48:04;;;;;;;7.37;3.68;;;;;;;20.72;52.77;101168.81;;;;-53
2019/10/31 08:51:04;;;;;;;5.00;3.28;;;;;;;20.72;52.60;101169.77;;;;-53
2019/10/31 08:54:05;;;;;;;3.67;3.19;;;;;;;20.72;52.63;101166.13;;;;-53
2019/10/31 08:57:05;;;;;;;4.45;3.09;;;;;;;20.72;52.39;101164.62;;;;-53
2019/10/31 09:00:05;;;;;;;3.77;3.22;;;;;;;20.70;52.44;101171.51;;;;-49
2019/10/31 09:03:05;;;;;;;6.85;4.08;;;;;;;20.67;50.88;101170.42;;;;-52
2019/10/31 09:06:05;;;;;;;5.57;4.32;;;;;;;20.68;50.76;101168.45;;;;-56
2019/10/31 09:09:05;;;;;;;5.39;4.16;;;;;;;20.67;50.98;101171.77;;;;-51
2019/10/31 09:12:05;;;;;;;6.36;3.89;;;;;;;20.69;51.02;101174.38;;;;-49
2019/10/31 09:15:05;;;;;;;5.73;3.78;;;;;;;20.70;51.20;101171.23;;;;-50
2019/10/31 09:18:05;;;;;;;6.55;3.84;;;;;;;20.71;51.36;101169.22;;;;-49
2019/10/31 09:21:06;;;;;;;3.95;3.45;;;;;;;20.72;51.38;101170.66;;;;-48
2019/10/31 09:24:05;;;;;;;5.78;3.73;;;;;;;20.72;51.49;101170.78;;;;-53
2019/10/31 09:27:04;;;;;;;4.79;3.93;;;;;;;20.73;51.45;101170.72;;;;-50
2019/10/31 09:30:04;;;;;;;4.67;3.43;;;;;;;20.74;51.58;101167.75;;;;-53
2019/10/31 09:33:04;;;;;;;4.14;3.55;;;;;;;20.75;51.66;101171.27;;;;-49
2019/10/31 09:36:04;;;;;;;6.47;3.77;;;;;;;20.76;51.60;101168.02;;;;-49
2019/10/31 09:39:05;;;;;;;5.03;3.73;;;;;;;20.76;51.60;101168.86;;;;-49
2019/10/31 09:42:05;;;;;;;4.53;3.80;;;;;;;20.76;51.73;101169.80;;;;-50
2019/10/31 09:45:05;;;;;;;4.17;3.65;;;;;;;20.76;51.70;101166.67;;;;-49
2019/10/31 09:48:05;;;;;;;4.45;3.87;;;;;;;20.77;51.73;101168.06;;;;-48
2019/10/31 09:51:05;;;;;;;4.19;3.79;;;;;;;20.77;51.53;101164.44;;;;-50
2019/10/31 09:54:05;;;;;;;4.15;3.63;;;;;;;20.77;51.91;101158.27;;;;-49
2019/10/31 09:57:05;;;;;;;5.12;3.95;;;;;;;20.75;50.94;101155.21;;;;-49
2019/10/31 10:00:05;;;;;;;5.91;4.34;;;;;;;20.77;49.41;101148.93;;;;-50
2019/10/31 10:03:05;;;;;;;11.73;4.29;;;;;;;20.78;50.60;101146.79;;;;-56
2019/10/31 10:06:05;;;;;;;5.63;4.06;;;;;;;20.79;50.79;101142.88;;;;-51
2019/10/31 10:09:05;;;;;;;5.15;4.09;;;;;;;20.78;50.48;101141.09;;;;-51
2019/10/31 10:12:04;;;;;;;5.67;3.80;;;;;;;20.77;50.84;101135.50;;;;-51
2019/10/31 10:15:05;;;;;;;6.53;4.01;;;;;;;20.76;50.93;101136.30;;;;-50
2019/10/31 10:18:05;;;;;;;4.96;4.03;;;;;;;20.75;51.00;101128.63;;;;-51
2019/10/31 10:21:05;;;;;;;5.84;3.54;;;;;;;20.75;50.89;101124.33;;;;-51
2019/10/31 10:24:04;;;;;;;4.90;3.87;;;;;;;20.75;51.07;101121.74;;;;-50
2019/10/31 10:27:04;;;;;;;5.44;3.83;;;;;;;20.74;51.14;101120.85;;;;-51
2019/10/31 10:30:04;;;;;;;4.59;3.77;;;;;;;20.75;51.07;101118.44;;;;-50
2019/10/31 10:33:05;;;;;;;4.05;3.65;;;;;;;20.74;51.09;101112.92;;;;-52
2019/10/31 10:36:05;;;;;;;4.36;3.78;;;;;;;20.74;51.11;101109.84;;;;-51
2019/10/31 10:39:05;;;;;;;4.12;3.72;;;;;;;20.74;51.08;101105.53;;;;-51
2019/10/31 10:42:04;;;;;;;3.99;3.60;;;;;;;20.75;51.15;101101.82;;;;-51
2019/10/31 10:45:04;;;;;;;4.33;3.52;;;;;;;20.75;51.21;101097.96;;;;-51
2019/10/31 10:48:04;;;;;;;4.31;3.83;;;;;;;20.74;51.24;101097.02;;;;-51
2019/10/31 10:51:04;;;;;;;5.05;3.83;;;;;;;20.75;51.15;101097.96;;;;-52
2019/10/31 10:54:05;;;;;;;4.04;3.64;;;;;;;20.75;51.13;101095.45;;;;-51
2019/10/31 10:57:05;;;;;;;4.12;3.74;;;;;;;20.75;51.02;101090.74;;;;-50
2019/10/31 11:00:05;;;;;;;5.67;3.91;;;;;;;20.75;51.09;101086.55;;;;-51
2019/10/31 11:03:05;;;;;;;5.15;3.55;;;;;;;20.75;51.18;101079.50;;;;-51
2019/10/31 11:06:05;;;;;;;4.50;3.75;;;;;;;20.76;51.23;101075.34;;;;-51
2019/10/31 11:09:05;;;;;;;4.39;3.78;;;;;;;20.76;51.13;101074.18;;;;-50
2019/10/31 11:12:05;;;;;;;3.92;3.58;;;;;;;20.76;51.07;101069.81;;;;-51
2019/10/31 11:15:05;;;;;;;3.99;3.50;;;;;;;20.77;51.24;101062.81;;;;-52
2019/10/31 11:18:05;;;;;;;3.96;3.58;;;;;;;20.77;51.15;101068.02;;;;-51
2019/10/31 11:21:05;;;;;;;4.65;3.59;;;;;;;20.77;51.14;101070.02;;;;-51
2019/10/31 11:24:05;;;;;;;4.44;3.59;;;;;;;20.77;51.05;101066.78;;;;-51
2019/10/31 11:27:05;;;;;;;4.15;3.75;;;;;;;20.78;51.08;101062.42;;;;-51
2019/10/31 11:30:05;;;;;;;5.50;3.83;;;;;;;20.78;51.11;101051.27;;;;-51
2019/10/31 11:33:05;;;;;;;4.15;3.55;;;;;;;20.79;51.26;101047.97;;;;-50
2019/10/31 11:36:05;;;;;;;3.99;3.63;;;;;;;20.80;51.25;101049.56;;;;-48
2019/10/31 11:39:04;;;;;;;3.85;3.49;;;;;;;20.82;51.33;101045.47;;;;-47
2019/10/31 11:42:05;;;;;;;5.33;3.75;;;;;;;20.84;51.52;101045.35;;;;-46
2019/10/31 11:45:05;;;;;;;4.02;3.59;;;;;;;20.86;51.54;101045.22;;;;-49
2019/10/31 11:48:05;;;;;;;3.93;3.53;;;;;;;20.87;51.38;101042.64;;;;-51
2019/10/31 11:51:05;;;;;;;4.03;3.53;;;;;;;20.88;51.51;101034.30;;;;-51
2019/10/31 11:54:05;;;;;;;6.19;3.60;;;;;;;20.88;51.47;101030.48;;;;-50
2019/10/31 11:57:05;;;;;;;3.80;3.30;;;;;;;20.90;51.58;101028.56;;;;-51
2019/10/31 12:00:05;;;;;;;5.31;3.54;;;;;;;20.91;51.64;101024.07;;;;-52
2019/10/31 12:03:05;;;;;;;3.91;3.56;;;;;;;20.92;51.65;101016.45;;;;-47
2019/10/31 12:06:05;;;;;;;3.72;3.35;;;;;;;20.93;51.62;101006.44;;;;-51
2019/10/31 12:09:05;;;;;;;4.11;3.51;;;;;;;20.93;51.74;101003.30;;;;-47
2019/10/31 12:12:05;;;;;;;3.83;3.20;;;;;;;20.93;51.58;101000.56;;;;-47
2019/10/31 12:15:05;;;;;;;3.85;3.37;;;;;;;20.95;51.66;100995.78;;;;-50
2019/10/31 12:18:05;;;;;;;4.67;3.50;;;;;;;20.96;51.64;100996.33;;;;-50
2019/10/31 12:21:05;;;;;;;4.47;3.56;;;;;;;20.96;51.49;100991.80;;;;-50
2019/10/31 12:24:05;;;;;;;3.98;3.37;;;;;;;20.96;51.65;100994.59;;;;-49
2019/10/31 12:27:05;;;;;;;3.70;3.40;;;;;;;20.96;51.61;100991.41;;;;-48
2019/10/31 12:30:05;;;;;;;3.79;3.44;;;;;;;20.98;51.68;100988.02;;;;-48
2019/10/31 12:33:05;;;;;;;3.62;3.32;;;;;;;20.98;51.63;100985.58;;;;-49
2019/10/31 12:36:05;;;;;;;4.03;3.50;;;;;;;20.99;51.86;100985.55;;;;-49
2019/10/31 12:39:05;;;;;;;5.64;3.74;;;;;;;20.99;51.56;100984.48;;;;-51
2019/10/31 12:42:05;;;;;;;4.39;3.50;;;;;;;20.99;51.49;100984.39;;;;-50
2019/10/31 12:45:05;;;;;;;3.54;3.24;;;;;;;20.98;51.40;100978.30;;;;-51
2019/10/31 12:48:05;;;;;;;4.45;3.37;;;;;;;20.98;51.21;100974.83;;;;-51
2019/10/31 12:51:05;;;;;;;4.46;3.22;;;;;;;20.98;51.39;100971.73;;;;-51
2019/10/31 12:54:05;;;;;;;4.18;3.34;;;;;;;20.98;51.36;100974.33;;;;-52
2019/10/31 12:57:05;;;;;;;3.50;3.20;;;;;;;20.97;51.32;100968.61;;;;-52
2019/10/31 13:00:05;;;;;;;3.51;3.23;;;;;;;20.97;51.36;100966.09;;;;-52
2019/10/31 13:03:05;;;;;;;3.89;3.49;;;;;;;20.97;51.25;100960.61;;;;-51
2019/10/31 13:06:05;;;;;;;3.40;3.10;;;;;;;20.96;51.37;100954.18;;;;-50
2019/10/31 13:09:05;;;;;;;4.69;3.36;;;;;;;20.95;51.43;100949.88;;;;-51
2019/10/31 13:12:05;;;;;;;3.52;3.22;;;;;;;20.95;51.33;100949.77;;;;-52
2019/10/31 13:15:05;;;;;;;3.68;3.35;;;;;;;20.95;51.25;100951.02;;;;-51
2019/10/31 13:18:05;;;;;;;3.50;3.20;;;;;;;20.95;51.29;100952.36;;;;-50
2019/10/31 13:21:05;;;;;;;3.28;2.98;;;;;;;20.94;51.39;100955.03;;;;-50
2019/10/31 13:24:05;;;;;;;3.41;3.11;;;;;;;20.93;51.37;100954.66;;;;-50
2019/10/31 13:27:05;;;;;;;3.46;3.16;;;;;;;20.93;51.12;100951.70;;;;-51
2019/10/31 13:30:05;;;;;;;3.59;3.29;;;;;;;20.93;51.29;100950.19;;;;-52
2019/10/31 13:33:08;;;;;;;3.49;3.19;;;;;;;20.93;51.25;100952.87;;;;-52
2019/10/31 13:36:05;;;;;;;3.29;2.96;;;;;;;20.93;51.37;100948.23;;;;-51
2019/10/31 13:39:05;;;;;;;3.41;3.11;;;;;;;20.93;51.38;100948.94;;;;-51
2019/10/31 13:42:05;;;;;;;3.39;3.09;;;;;;;20.92;51.30;100947.89;;;;-51
2019/10/31 13:45:05;;;;;;;3.26;2.96;;;;;;;20.92;51.31;100945.27;;;;-51
2019/10/31 13:48:05;;;;;;;3.29;2.99;;;;;;;20.92;51.36;100944.44;;;;-50
2019/10/31 13:51:05;;;;;;;3.37;3.07;;;;;;;20.91;51.41;100940.28;;;;-53
2019/10/31 13:54:05;;;;;;;3.43;3.13;;;;;;;20.91;51.28;100942.97;;;;-52
2019/10/31 13:57:05;;;;;;;3.49;3.18;;;;;;;20.92;51.38;100942.47;;;;-51
2019/10/31 14:00:05;;;;;;;3.71;3.29;;;;;;;20.91;51.28;100936.16;;;;-50
2019/10/31 14:03:05;;;;;;;3.83;3.43;;;;;;;20.90;51.22;100936.28;;;;-51
2019/10/31 14:06:05;;;;;;;3.56;3.26;;;;;;;20.90;51.35;100932.42;;;;-50
2019/10/31 14:09:05;;;;;;;3.66;3.27;;;;;;;20.90;51.46;100929.83;;;;-50
2019/10/31 14:12:05;;;;;;;3.58;3.28;;;;;;;20.90;51.31;100926.88;;;;-52
2019/10/31 14:15:05;;;;;;;4.03;3.63;;;;;;;20.90;51.39;100930.62;;;;-52
2019/10/31 14:18:05;;;;;;;4.06;3.64;;;;;;;20.89;51.40;100931.70;;;;-51
2019/10/31 14:21:05;;;;;;;4.02;3.44;;;;;;;20.89;51.26;100928.84;;;;-51
2019/10/31 14:24:05;;;;;;;3.99;3.41;;;;;;;20.89;51.40;100925.59;;;;-50
2019/10/31 14:27:05;;;;;;;9.13;3.50;;;;;;;20.90;51.24;100928.16;;;;-49
2019/10/31 14:30:05;;;;;;;4.51;3.35;;;;;;;20.90;51.25;100922.17;;;;-51
2019/10/31 14:33:05;;;;;;;5.57;3.55;;;;;;;20.93;51.34;100924.05;;;;-52
2019/10/31 14:40:22;;;;;;;3.69;3.36;;;;;;;20.91;51.37;100925.64;;;;-52
2019/10/31 14:43:22;;;;;;;3.91;3.29;;;;;;;20.90;51.40;100922.95;;;;-52
2019/10/31 14:46:24;;;;;;;3.78;3.41;;;;;;;20.90;51.42;100928.28;;;;-52
2019/10/31 14:49:24;;;;;;;3.62;3.25;;;;;;;20.90;51.49;100926.70;;;;-52
2019/10/31 14:52:22;;;;;;;4.61;3.19;;;;;;;20.88;51.52;100923.94;;;;-52
2019/10/31 14:55:22;;;;;;;3.71;3.37;;;;;;;20.88;51.45;100927.72;;;;-52
2019/10/31 14:58:22;;;;;;;4.73;3.39;;;;;;;20.88;51.43;100927.05;;;;-52
2019/10/31 15:01:22;;;;;;;4.17;3.48;;;;;;;20.88;51.47;100926.45;;;;-52
2019/10/31 15:04:22;;;;;;;3.57;3.11;;;;;;;20.87;51.37;100929.59;;;;-52
2019/10/31 15:07:22;;;;;;;3.51;3.21;;;;;;;20.87;51.45;100926.67;;;;-52
2019/10/31 15:10:22;;;;;;;4.78;3.31;;;;;;;20.87;51.48;100920.36;;;;-51
2019/10/31 15:13:22;;;;;;;3.53;3.21;;;;;;;20.86;51.47;100921.81;;;;-52
2019/10/31 15:16:22;;;;;;;3.60;3.25;;;;;;;20.86;51.49;100925.55;;;;-52
2019/10/31 15:22:22;;;;;;;3.41;3.11;;;;;;;20.86;51.30;100923.20;;;;-52
2019/10/31 15:25:22;;;;;;;3.54;3.20;;;;;;;20.86;51.12;100922.70;;;;-52
2019/10/31 15:28:22;;;;;;;3.77;3.37;;;;;;;20.87;51.24;100928.31;;;;-51
2019/10/31 15:31:22;;;;;;;3.90;3.42;;;;;;;20.86;51.09;100923.54;;;;-52
2019/10/31 15:34:22;;;;;;;3.96;3.23;;;;;;;20.86;51.31;100919.41;;;;-52
2019/10/31 15:37:22;;;;;;;3.65;3.34;;;;;;;20.86;51.26;100916.61;;;;-52
2019/10/31 15:40:22;;;;;;;3.60;3.30;;;;;;;20.86;51.25;100919.41;;;;-52
2019/10/31 15:43:22;;;;;;;4.23;3.20;;;;;;;20.86;51.33;100922.42;;;;-52
2019/10/31 15:46:22;;;;;;;3.35;3.05;;;;;;;20.86;51.39;100923.67;;;;-52
2019/10/31 15:49:22;;;;;;;3.47;3.17;;;;;;;20.86;51.44;100924.05;;;;-51
2019/10/31 15:52:22;;;;;;;3.62;3.29;;;;;;;20.86;51.47;100926.86;;;;-52
2019/10/31 15:55:22;;;;;;;3.65;3.35;;;;;;;20.86;51.41;100924.06;;;;-52
2019/10/31 15:58:22;;;;;;;4.01;3.11;;;;;;;20.86;51.39;100920.20;;;;-51
2019/10/31 16:01:22;;;;;;;4.25;3.18;;;;;;;20.86;51.41;100922.55;;;;-52
2019/10/31 16:04:22;;;;;;;3.91;3.35;;;;;;;20.86;51.41;100926.69;;;;-52
2019/10/31 16:07:22;;;;;;;3.94;3.52;;;;;;;20.86;51.46;100928.77;;;;-52
2019/10/31 16:10:22;;;;;;;3.42;3.12;;;;;;;20.85;51.42;100926.08;;;;-53
2019/10/31 16:13:22;;;;;;;3.49;3.19;;;;;;;20.87;51.44;100931.50;;;;-51
2019/10/31 16:16:22;;;;;;;3.25;2.95;;;;;;;20.87;51.39;100928.58;;;;-51
2019/10/31 16:19:22;;;;;;;3.75;3.38;;;;;;;20.86;51.62;100929.98;;;;-52
2019/10/31 16:22:22;;;;;;;4.66;3.23;;;;;;;20.89;51.42;100931.36;;;;-55
2019/10/31 16:25:22;;;;;;;4.01;3.25;;;;;;;20.89;51.46;100932.13;;;;-53
2019/10/31 16:28:22;;;;;;;3.40;3.08;;;;;;;20.90;51.59;100935.95;;;;-52
2019/10/31 16:31:22;;;;;;;3.69;3.15;;;;;;;20.91;51.66;100937.27;;;;-52
2019/10/31 16:34:22;;;;;;;3.99;3.43;;;;;;;20.94;51.69;100938.64;;;;-53
2019/10/31 16:37:22;;;;;;;3.33;3.03;;;;;;;20.95;51.82;100937.86;;;;-49
2019/10/31 16:40:22;;;;;;;3.93;3.08;;;;;;;20.95;51.75;100939.80;;;;-50
2019/10/31 16:43:22;;;;;;;3.97;3.28;;;;;;;20.97;51.94;100937.67;;;;-52
2019/10/31 16:46:22;;;;;;;4.22;3.22;;;;;;;20.98;51.88;100936.14;;;;-52
2019/10/31 16:49:22;;;;;;;4.06;3.13;;;;;;;20.98;51.86;100931.88;;;;-51
2019/10/31 16:52:22;;;;;;;5.67;3.27;;;;;;;20.99;51.92;100929.81;;;;-52
2019/10/31 16:55:22;;;;;;;5.96;3.39;;;;;;;21.03;51.70;100931.84;;;;-52
2019/10/31 16:58:22;;;;;;;6.21;3.00;;;;;;;21.03;51.77;100938.63;;;;-51
2019/10/31 17:01:22;;;;;;;4.83;3.31;;;;;;;21.03;51.79;100940.47;;;;-51
2019/10/31 17:04:22;;;;;;;4.30;3.19;;;;;;;21.02;51.81;100938.34;;;;-52
2019/10/31 17:07:22;;;;;;;5.43;3.41;;;;;;;21.05;52.02;100935.80;;;;-58
2019/10/31 17:10:22;;;;;;;46.64;4.81;;;;;;;21.05;52.16;100928.84;;;;-51
2019/10/31 17:13:22;;;;;;;14.67;3.83;;;;;;;21.06;51.66;100928.75;;;;-51
2019/10/31 17:16:22;;;;;;;6.81;3.45;;;;;;;21.05;51.85;100932.70;;;;-51
2019/10/31 17:19:22;;;;;;;7.15;3.34;;;;;;;21.03;51.82;100928.25;;;;-57
2019/10/31 17:22:22;;;;;;;5.95;3.30;;;;;;;21.04;51.79;100926.61;;;;-63
2019/10/31 17:25:22;;;;;;;6.97;3.40;;;;;;;21.04;51.89;100924.50;;;;-59
2019/10/31 17:28:22;;;;;;;6.34;3.32;;;;;;;21.04;51.80;100924.56;;;;-59
2019/10/31 17:31:22;;;;;;;4.84;3.35;;;;;;;21.03;51.80;100923.61;;;;-60
2019/10/31 17:34:22;;;;;;;4.58;3.30;;;;;;;21.04;51.71;100932.35;;;;-61
2019/10/31 17:37:22;;;;;;;4.51;3.23;;;;;;;21.02;51.92;100934.82;;;;-60
2019/10/31 17:40:22;;;;;;;4.41;3.13;;;;;;;21.02;51.93;100935.66;;;;-62
2019/10/31 17:43:22;;;;;;;5.97;3.17;;;;;;;21.01;52.00;100935.10;;;;-60
2019/10/31 17:46:22;;;;;;;5.45;3.33;;;;;;;21.00;51.88;100935.00;;;;-61
2019/10/31 17:49:22;;;;;;;7.53;3.29;;;;;;;21.00;51.96;100940.84;;;;-56
2019/10/31 17:52:22;;;;;;;5.85;3.52;;;;;;;21.00;52.04;100938.86;;;;-57
2019/10/31 17:55:22;;;;;;;4.02;3.17;;;;;;;20.99;52.07;100934.28;;;;-63
2019/10/31 17:58:22;;;;;;;5.76;3.67;;;;;;;20.99;51.75;100928.20;;;;-60
2019/10/31 18:01:22;;;;;;;5.30;3.29;;;;;;;20.96;52.06;100928.77;;;;-60
2019/10/31 18:04:22;;;;;;;4.99;3.39;;;;;;;20.96;51.97;100925.64;;;;-60
2019/10/31 18:07:22;;;;;;;5.17;3.25;;;;;;;20.94;51.92;100929.23;;;;-60
2019/10/31 18:10:22;;;;;;;3.66;3.26;;;;;;;20.95;51.95;100932.31;;;;-60
2019/10/31 18:13:22;;;;;;;3.66;3.25;;;;;;;20.93;51.67;100935.41;;;;-60
2019/10/31 18:16:22;;;;;;;3.99;3.31;;;;;;;20.91;51.88;100937.89;;;;-59
2019/10/31 18:19:22;;;;;;;3.43;3.11;;;;;;;20.90;51.88;100939.63;;;;-59
2019/10/31 18:22:22;;;;;;;3.89;3.47;;;;;;;20.90;51.86;100940.07;;;;-60
2019/10/31 18:25:22;;;;;;;4.79;3.39;;;;;;;20.89;51.79;100943.28;;;;-59
2019/10/31 18:28:22;;;;;;;3.41;2.99;;;;;;;20.88;51.85;100941.49;;;;-60
2019/10/31 18:31:22;;;;;;;3.81;3.41;;;;;;;20.88;51.76;100945.98;;;;-60
2019/10/31 18:34:22;;;;;;;5.31;3.70;;;;;;;20.86;51.65;100946.23;;;;-60
2019/10/31 18:37:22;;;;;;;4.50;3.49;;;;;;;20.85;51.71;100945.89;;;;-59
2019/10/31 18:40:22;;;;;;;4.55;3.37;;;;;;;20.83;51.73;100941.05;;;;-60
2019/10/31 18:43:22;;;;;;;3.63;3.33;;;;;;;20.83;51.76;100947.43;;;;-60
2019/10/31 18:46:22;;;;;;;3.83;3.25;;;;;;;20.81;51.73;100954.26;;;;-60
2019/10/31 18:49:22;;;;;;;3.71;3.37;;;;;;;20.82;51.65;100953.59;;;;-60
2019/10/31 18:52:22;;;;;;;5.13;3.27;;;;;;;20.81;51.65;100953.38;;;;-60
2019/10/31 18:55:22;;;;;;;3.68;3.33;;;;;;;20.79;51.71;100950.71;;;;-60
2019/10/31 18:58:22;;;;;;;3.83;3.41;;;;;;;20.77;51.69;100946.48;;;;-60
2019/10/31 19:01:22;;;;;;;3.71;3.30;;;;;;;20.75;51.60;100943.14;;;;-59
2019/10/31 19:04:22;;;;;;;3.69;3.31;;;;;;;20.75;51.63;100939.11;;;;-60
2019/10/31 19:07:22;;;;;;;3.87;3.43;;;;;;;20.74;51.64;100939.28;;;;-60
2019/10/31 19:10:22;;;;;;;4.65;3.39;;;;;;;20.72;51.73;100939.03;;;;-60
2019/10/31 19:13:22;;;;;;;4.03;3.63;;;;;;;20.71;51.58;100938.48;;;;-60
2019/10/31 19:16:22;;;;;;;3.41;3.11;;;;;;;20.69;51.59;100935.02;;;;-60
2019/10/31 19:19:22;;;;;;;3.49;3.19;;;;;;;20.68;51.58;100934.08;;;;-60
2019/10/31 19:22:22;;;;;;;3.57;3.27;;;;;;;20.67;51.54;100931.41;;;;-60
2019/10/31 19:25:22;;;;;;;3.89;3.39;;;;;;;20.65;51.52;100930.41;;;;-60
2019/10/31 19:28:22;;;;;;;5.51;3.44;;;;;;;20.62;51.52;100921.14;;;;-60
2019/10/31 19:31:22;;;;;;;4.41;3.50;;;;;;;20.61;51.57;100925.19;;;;-59
2019/10/31 19:34:22;;;;;;;3.77;3.42;;;;;;;20.60;51.47;100927.21;;;;-60
2019/10/31 19:37:22;;;;;;;5.49;3.64;;;;;;;20.59;51.54;100931.86;;;;-60
2019/10/31 19:40:22;;;;;;;3.57;3.27;;;;;;;20.56;51.47;100932.73;;;;-58
2019/10/31 19:43:22;;;;;;;5.49;3.41;;;;;;;20.57;51.53;100934.66;;;;-56
2019/10/31 19:46:22;;;;;;;5.46;3.28;;;;;;;20.56;51.50;100931.38;;;;-57
2019/10/31 19:49:22;;;;;;;3.97;3.38;;;;;;;20.56;51.57;100934.52;;;;-54
2019/10/31 19:58:22;;;;;;;4.65;3.47;;;;;;;20.54;51.44;100935.13;;;;-63
2019/10/31 20:01:22;;;;;;;6.35;3.71;;;;;;;20.55;51.44;100936.15;;;;-58
2019/10/31 20:04:22;;;;;;;4.61;3.63;;;;;;;20.54;51.12;100939.66;;;;-61
2019/10/31 20:07:22;;;;;;;6.82;3.87;;;;;;;20.53;51.30;100932.59;;;;-60
2019/10/31 20:10:22;;;;;;;4.02;3.60;;;;;;;20.51;51.42;100931.30;;;;-58
2019/10/31 20:13:22;;;;;;;4.25;3.70;;;;;;;20.52;51.57;100932.08;;;;-57
2019/10/31 20:16:22;;;;;;;3.93;3.53;;;;;;;20.52;51.64;100932.75;;;;-56
2019/10/31 20:19:22;;;;;;;4.23;3.83;;;;;;;20.49;51.76;100937.57;;;;-56
2019/10/31 20:22:22;;;;;;;4.34;3.87;;;;;;;20.50;51.51;100935.44;;;;-58
2019/10/31 20:25:22;;;;;;;4.74;4.00;;;;;;;20.48;51.40;100931.27;;;;-59
2019/10/31 20:28:22;;;;;;;5.03;3.79;;;;;;;20.47;51.38;100928.08;;;;-58
2019/10/31 20:31:22;;;;;;;5.91;4.03;;;;;;;20.46;51.34;100923.97;;;;-58
2019/10/31 20:34:22;;;;;;;3.81;3.46;;;;;;;20.46;51.40;100917.25;;;;-58
2019/10/31 20:37:22;;;;;;;4.21;3.72;;;;;;;20.44;51.43;100915.08;;;;-59
2019/10/31 20:40:21;;;;;;;3.87;3.56;;;;;;;20.43;51.48;100907.55;;;;-59
2019/10/31 20:43:22;;;;;;;4.64;3.74;;;;;;;20.41;51.51;100905.20;;;;-59
2019/10/31 20:46:22;;;;;;;4.39;3.64;;;;;;;20.39;51.48;100904.88;;;;-58
2019/10/31 20:49:22;;;;;;;4.39;3.86;;;;;;;20.39;51.52;100905.78;;;;-59
2019/10/31 20:52:22;;;;;;;5.18;3.87;;;;;;;20.38;51.52;100908.75;;;;-57
2019/10/31 20:55:22;;;;;;;4.39;3.99;;;;;;;20.35;51.49;100904.02;;;;-58
2019/10/31 20:58:22;;;;;;;4.48;4.07;;;;;;;20.34;51.24;100903.87;;;;-59
2019/10/31 21:01:22;;;;;;;6.30;4.05;;;;;;;20.33;51.21;100904.83;;;;-60
2019/10/31 21:04:22;;;;;;;5.57;4.21;;;;;;;20.33;51.10;100900.52;;;;-58
2019/10/31 21:07:22;;;;;;;5.49;4.28;;;;;;;20.32;51.04;100898.41;;;;-61
2019/10/31 21:10:22;;;;;;;4.63;4.13;;;;;;;20.31;51.22;100897.34;;;;-58
2019/10/31 21:13:22;;;;;;;5.62;4.46;;;;;;;20.31;51.13;100898.75;;;;-60
2019/10/31 21:16:22;;;;;;;4.93;4.41;;;;;;;20.30;51.11;100896.89;;;;-59
2019/10/31 21:19:22;;;;;;;6.75;4.47;;;;;;;20.30;50.92;100898.36;;;;-56
2019/10/31 21:22:22;;;;;;;4.83;4.41;;;;;;;20.29;51.02;100900.09;;;;-60